LFBZ/BIQ METAR and TAF weather

Enter ICAO airport designator
Station Type Date Time Source
LFBZ METAR 2019/04/19 10:00 UTC NOAA

LFBZ 191000Z AUTO 30004KT 270V340 CAVOK 16/13 Q1020 NOSIG


Station Type Date Time Source
LFBZ Decoded METAR 2019/04/19 10:00 UTC NOAA

Biarritz, France (LFBZ) 43-28N 001-32W 71M
Apr 19, 2019 - 06:00 AM EDT / 2019.04.19 1000 UTC
Wind: from the WNW (300 degrees) at 5 MPH (4 KT) (direction variable):0
Visibility: greater than 7 mile(s):0
Temperature: 60 F (16 C)
Dew Point: 55 F (13 C)
Relative Humidity: 82%
Pressure (altimeter): 30.12 in. Hg (1020 hPa)
ob: LFBZ 191000Z AUTO 30004KT 270V340 CAVOK 16/13 Q1020 NOSIG
cycle: 10

Station Type Date Time Source
LFBZ TAF 2019/04/19 06:46 UTC NOAA

TAF LFBZ 190500Z 1906/2006 VRB03KT 9999 BKN005
BECMG 1907/1909 30005KT CAVOK

Example: see airport list